createdAt,value
2022-09-20T00:01:33.311Z,31.33
2022-09-20T00:04:05.507Z,30.27
2022-09-20T00:06:34.490Z,30.65
2022-09-20T00:09:03.527Z,31.00
2022-09-20T00:11:33.464Z,31.20
2022-09-20T00:14:05.965Z,31.00
2022-09-20T00:16:36.195Z,30.08
2022-09-20T00:19:05.449Z,30.13
2022-09-20T00:21:36.436Z,30.75
2022-09-20T00:24:04.661Z,30.08
2022-09-20T00:26:32.813Z,30.20
2022-09-20T00:29:02.437Z,30.73
2022-09-20T00:31:30.595Z,29.25
2022-09-20T00:34:17.331Z,27.92
2022-09-20T00:36:48.488Z,28.63
2022-09-20T00:39:17.312Z,28.45
2022-09-20T00:41:45.553Z,29.60
2022-09-20T00:44:49.069Z,29.63
2022-09-20T00:47:26.812Z,29.67
2022-09-20T00:50:00.683Z,29.98
2022-09-20T00:52:30.404Z,28.00
2022-09-20T00:55:00.144Z,29.08
2022-09-20T00:57:28.748Z,28.70
2022-09-20T00:59:58.939Z,28.33
2022-09-20T01:02:31.601Z,27.85
2022-09-20T01:05:00.380Z,29.10
2022-09-20T01:07:29.843Z,28.73
2022-09-20T01:09:58.773Z,28.55
2022-09-20T01:12:31.500Z,29.05
2022-09-20T01:15:03.880Z,28.88
2022-09-20T01:17:35.451Z,29.23
2022-09-20T01:20:13.198Z,29.60
2022-09-20T01:23:16.542Z,29.70
2022-09-20T01:26:17.692Z,28.60
2022-09-20T01:28:52.557Z,28.58
2022-09-20T01:31:26.651Z,27.80
2022-09-20T01:33:59.749Z,27.17
2022-09-20T01:36:40.359Z,28.50
2022-09-20T01:39:15.917Z,28.38
2022-09-20T01:41:50.522Z,28.45
2022-09-20T01:44:27.272Z,28.25
2022-09-20T01:47:02.137Z,27.88
2022-09-20T01:49:41.943Z,26.48
2022-09-20T01:52:48.328Z,27.10
2022-09-20T01:55:49.953Z,25.95
2022-09-20T01:58:37.074Z,25.48
2022-09-20T02:01:35.237Z,25.25
2022-09-20T02:04:20.463Z,26.08
2022-09-20T02:07:08.842Z,25.38
2022-09-20T02:10:04.012Z,26.33
2022-09-20T02:12:52.100Z,26.90
2022-09-20T02:15:49.137Z,25.48
2022-09-20T02:18:35.926Z,27.27
2022-09-20T02:21:11.553Z,27.35
2022-09-20T02:23:50.310Z,26.42
2022-09-20T02:26:40.378Z,26.60
2022-09-20T02:29:18.748Z,27.00
2022-09-20T02:32:07.168Z,25.05
2022-09-20T02:34:56.624Z,24.95
2022-09-20T02:37:46.874Z,28.08
2022-09-20T02:40:27.633Z,26.92
2022-09-20T02:43:04.221Z,25.80
2022-09-20T02:45:41.448Z,26.27
2022-09-20T02:48:12.052Z,25.63
2022-09-20T02:50:48.374Z,25.42
2022-09-20T02:53:31.196Z,25.60
2022-09-20T02:56:08.276Z,26.23
2022-09-20T02:58:47.541Z,26.10
2022-09-20T03:01:27.746Z,26.67
2022-09-20T03:04:09.176Z,26.08
2022-09-20T03:06:44.619Z,25.60
2022-09-20T03:09:19.455Z,25.33
2022-09-20T03:11:58.931Z,26.95
2022-09-20T03:14:32.558Z,25.80
2022-09-20T03:17:10.289Z,27.17
2022-09-20T03:19:50.062Z,26.20
2022-09-20T03:22:32.519Z,26.92
2022-09-20T03:25:21.800Z,25.30
2022-09-20T03:27:58.839Z,26.30
2022-09-20T03:30:39.760Z,26.45
2022-09-20T03:33:15.122Z,26.55
2022-09-20T03:35:56.919Z,26.58
2022-09-20T03:38:41.260Z,27.75
2022-09-20T03:41:38.755Z,27.70
2022-09-20T03:44:33.276Z,27.27
2022-09-20T03:47:11.023Z,29.00
2022-09-20T03:50:05.344Z,29.17
2022-09-20T03:53:07.984Z,31.92
2022-09-20T03:56:13.565Z,34.67
2022-09-20T03:58:58.452Z,44.63
2022-09-20T04:01:45.178Z,36.50
2022-09-20T04:04:20.159Z,33.35
2022-09-20T04:07:11.953Z,33.53
2022-09-20T04:09:56.785Z,29.90
2022-09-20T04:12:34.028Z,28.92
2022-09-20T04:15:17.566Z,29.23
2022-09-20T04:17:53.275Z,28.38
2022-09-20T04:20:29.701Z,27.08
2022-09-20T04:23:01.165Z,26.65
2022-09-20T04:25:34.767Z,26.55
2022-09-20T04:28:11.685Z,25.73
2022-09-20T04:30:44.092Z,26.88
2022-09-20T04:33:21.556Z,25.48
2022-09-20T04:36:19.211Z,26.38
2022-09-20T04:38:52.237Z,25.13
2022-09-20T04:41:43.897Z,24.23
2022-09-20T04:44:56.660Z,25.55
2022-09-20T04:47:49.687Z,25.08
2022-09-20T04:50:44.054Z,25.10
2022-09-20T04:53:45.960Z,25.83
2022-09-20T04:56:23.493Z,24.80
2022-09-20T04:59:07.885Z,24.73
2022-09-20T05:02:20.033Z,24.17
2022-09-20T05:05:18.976Z,24.95
2022-09-20T05:08:16.122Z,24.52
2022-09-20T05:11:19.633Z,24.33
2022-09-20T05:14:12.927Z,23.98
2022-09-20T05:16:58.584Z,25.60
2022-09-20T05:19:37.416Z,25.75
2022-09-20T05:22:43.158Z,25.05
2022-09-20T05:25:34.132Z,26.23
2022-09-20T05:28:08.032Z,27.05
2022-09-20T05:30:43.235Z,26.75
2022-09-20T05:33:23.723Z,25.65
2022-09-20T05:36:03.468Z,25.85
2022-09-20T05:38:42.228Z,25.40
2022-09-20T05:41:19.050Z,27.17
2022-09-20T05:43:55.965Z,25.92
2022-09-20T05:46:37.783Z,27.50
2022-09-20T05:49:17.891Z,27.70
2022-09-20T05:52:12.024Z,27.58
2022-09-20T05:55:01.736Z,27.38
2022-09-20T05:57:39.110Z,26.50
2022-09-20T06:00:11.349Z,27.20
2022-09-20T06:02:48.270Z,27.33
2022-09-20T06:05:19.854Z,27.40
2022-09-20T06:08:24.704Z,27.83
2022-09-20T06:11:21.827Z,28.60
2022-09-20T06:14:05.067Z,28.10
2022-09-20T06:16:41.614Z,28.45
2022-09-20T06:19:19.881Z,28.77
2022-09-20T06:21:53.150Z,27.40
2022-09-20T06:24:32.501Z,28.55
2022-09-20T06:27:05.017Z,27.95
2022-09-20T06:29:36.900Z,27.80
2022-09-20T06:32:05.207Z,27.92
2022-09-20T06:34:33.383Z,28.10
2022-09-20T06:37:32.981Z,27.30
2022-09-20T06:40:30.126Z,26.55
2022-09-20T06:43:00.384Z,26.13
2022-09-20T06:45:29.053Z,28.27
2022-09-20T06:47:57.279Z,27.25
2022-09-20T06:50:25.457Z,28.20
2022-09-20T06:52:55.159Z,28.75
2022-09-20T06:55:29.623Z,29.85
2022-09-20T06:57:57.999Z,28.67
2022-09-20T07:00:25.979Z,28.83
2022-09-20T07:02:53.954Z,27.25
2022-09-20T07:05:22.220Z,27.20
2022-09-20T07:07:50.497Z,26.48
2022-09-20T07:10:18.416Z,27.35
2022-09-20T07:12:48.660Z,28.00
2022-09-20T07:15:17.099Z,28.27
2022-09-20T07:17:46.152Z,28.70
2022-09-20T07:20:15.757Z,29.80
2022-09-20T07:22:46.408Z,29.52
2022-09-20T07:25:14.667Z,28.42
2022-09-20T07:27:42.742Z,29.02
2022-09-20T07:30:14.511Z,28.92
2022-09-20T07:32:42.788Z,26.75
2022-09-20T07:35:11.865Z,28.50
2022-09-20T07:37:41.334Z,27.85
2022-09-20T07:40:11.544Z,27.13
2022-09-20T07:42:39.765Z,22.60
2022-09-20T07:45:09.104Z,20.10
2022-09-20T07:47:41.225Z,19.35
2022-09-20T07:50:11.263Z,20.90
2022-09-20T07:52:39.271Z,19.52
2022-09-20T07:55:07.998Z,18.65
2022-09-20T07:57:37.518Z,17.13
2022-09-20T08:00:08.627Z,18.17
2022-09-20T08:02:38.111Z,11.68
2022-09-20T08:05:06.951Z,14.77
2022-09-20T08:07:34.856Z,16.55
2022-09-20T08:10:02.811Z,15.38
2022-09-20T08:15:18.735Z,13.13
2022-09-20T08:17:49.612Z,12.38
2022-09-20T08:20:19.492Z,6.50
2022-09-20T08:22:56.582Z,2.40
2022-09-20T08:25:34.998Z,2.88
2022-09-20T08:28:03.587Z,2.40
2022-09-20T08:30:31.737Z,2.40
2022-09-20T08:33:03.396Z,2.15
2022-09-20T08:35:31.433Z,1.70
2022-09-20T08:40:51.569Z,2.45
2022-09-20T08:43:22.341Z,2.47
2022-09-20T08:45:50.872Z,2.03
2022-09-20T08:48:28.309Z,2.22
2022-09-20T08:50:59.951Z,2.25
2022-09-20T08:53:28.992Z,3.03
2022-09-20T08:55:59.590Z,1.80
2022-09-20T08:58:28.712Z,2.05
2022-09-20T09:00:58.892Z,1.80
2022-09-20T09:03:29.342Z,1.50
2022-09-20T09:05:58.805Z,1.35
2022-09-20T09:08:31.024Z,2.20
2022-09-20T09:11:01.888Z,1.55
2022-09-20T09:13:37.718Z,1.50
2022-09-20T09:16:10.872Z,1.40
2022-09-20T09:18:42.148Z,1.42
2022-09-20T09:21:18.186Z,1.83
2022-09-20T09:23:52.746Z,2.33
2022-09-20T09:26:23.723Z,2.60
2022-09-20T09:29:17.087Z,1.42
2022-09-20T09:31:46.400Z,1.75
2022-09-20T09:34:27.126Z,1.65
2022-09-20T09:36:55.959Z,1.90
2022-09-20T09:39:28.437Z,1.55
2022-09-20T09:41:59.149Z,1.50
2022-09-20T09:44:29.229Z,1.73
2022-09-20T09:46:58.638Z,1.55
2022-09-20T09:49:34.041Z,1.60
2022-09-20T09:52:08.613Z,1.88
2022-09-20T09:54:39.569Z,1.63
2022-09-20T09:57:24.430Z,1.40
2022-09-20T10:00:13.785Z,1.30
2022-09-20T10:03:06.945Z,1.52
2022-09-20T10:05:53.223Z,1.60
2022-09-20T10:08:30.297Z,2.10
2022-09-20T10:11:10.210Z,1.80
2022-09-20T10:13:45.608Z,1.52
2022-09-20T10:16:22.009Z,1.58
2022-09-20T10:18:55.812Z,1.30
2022-09-20T10:21:43.656Z,1.50
2022-09-20T10:24:30.260Z,1.23
2022-09-20T10:27:19.137Z,1.30
2022-09-20T10:30:03.112Z,2.35
2022-09-20T10:32:45.825Z,1.63
2022-09-20T10:35:41.298Z,1.92
2022-09-20T10:38:19.687Z,2.28
2022-09-20T10:41:31.735Z,1.75
2022-09-20T10:44:32.923Z,1.80
2022-09-20T10:47:08.207Z,2.00
2022-09-20T10:49:41.289Z,2.10
2022-09-20T10:52:37.042Z,1.88
2022-09-20T10:55:25.566Z,1.60
2022-09-20T10:58:06.109Z,2.17
2022-09-20T11:00:46.852Z,1.80
2022-09-20T11:03:29.634Z,1.98
2022-09-20T11:06:15.159Z,1.75
2022-09-20T11:08:45.873Z,1.80
2022-09-20T11:11:22.069Z,2.20
2022-09-20T11:13:59.698Z,1.60
2022-09-20T11:16:34.199Z,1.70
2022-09-20T11:19:10.275Z,1.70
2022-09-20T11:21:45.412Z,1.73
2022-09-20T11:24:29.150Z,1.73
2022-09-20T11:27:02.063Z,1.58
2022-09-20T11:29:36.903Z,2.05
2022-09-20T11:32:13.946Z,2.58
2022-09-20T11:34:50.773Z,1.83
2022-09-20T11:37:20.014Z,1.73
2022-09-20T11:39:52.395Z,1.63
2022-09-20T11:42:26.471Z,1.10
2022-09-20T11:44:55.940Z,1.50
2022-09-20T11:47:52.862Z,1.50
2022-09-20T11:50:48.367Z,1.50
2022-09-20T11:53:36.658Z,1.25
2022-09-20T11:56:09.839Z,1.38
2022-09-20T11:58:48.428Z,1.50
2022-09-20T12:01:18.773Z,1.45
2022-09-20T12:04:00.230Z,1.90
2022-09-20T12:06:39.764Z,1.63
2022-09-20T12:09:24.458Z,1.92
2022-09-20T12:11:53.241Z,2.28
2022-09-20T12:14:26.355Z,1.60
2022-09-20T12:16:54.763Z,1.40
2022-09-20T12:19:41.189Z,1.60
2022-09-20T12:22:29.507Z,1.50
2022-09-20T12:25:34.597Z,1.40
2022-09-20T12:28:02.781Z,1.70
2022-09-20T12:30:33.972Z,1.70
2022-09-20T12:33:02.614Z,1.50
2022-09-20T12:36:14.483Z,1.40
2022-09-20T12:39:00.157Z,1.08
2022-09-20T12:41:29.316Z,1.30
2022-09-20T12:44:04.887Z,1.25
2022-09-20T12:46:38.152Z,1.13
2022-09-20T12:50:01.571Z,1.10
2022-09-20T12:52:55.573Z,1.15
2022-09-20T12:55:40.115Z,1.35
2022-09-20T12:58:23.839Z,1.20
2022-09-20T13:01:13.322Z,1.27
2022-09-20T13:03:44.717Z,1.05
2022-09-20T13:06:25.687Z,1.15
2022-09-20T13:09:06.168Z,1.20
2022-09-20T13:11:40.284Z,1.35
2022-09-20T13:14:13.330Z,1.27
2022-09-20T13:16:56.347Z,1.73
2022-09-20T13:19:29.838Z,1.30
2022-09-20T13:22:03.946Z,1.52
2022-09-20T13:24:38.223Z,1.40
2022-09-20T13:27:10.047Z,1.10
2022-09-20T13:29:41.284Z,1.45
2022-09-20T13:32:19.560Z,1.58
2022-09-20T13:35:06.538Z,1.30
2022-09-20T13:37:35.729Z,1.33
2022-09-20T13:40:04.834Z,1.25
2022-09-20T13:42:35.800Z,1.10
2022-09-20T13:45:04.984Z,1.30
2022-09-20T13:47:34.097Z,1.17
2022-09-20T13:50:14.160Z,1.13
2022-09-20T13:52:47.845Z,0.93
2022-09-20T13:55:28.559Z,1.20
2022-09-20T13:57:59.860Z,1.00
2022-09-20T14:00:29.154Z,1.08
2022-09-20T14:02:58.648Z,0.70
2022-09-20T14:05:30.910Z,1.73
2022-09-20T14:08:01.694Z,0.80
2022-09-20T14:10:33.229Z,1.00
2022-09-20T14:13:02.428Z,1.23
2022-09-20T14:15:35.445Z,0.90
2022-09-20T14:18:06.508Z,1.10
2022-09-20T14:20:36.329Z,0.82
2022-09-20T14:23:04.411Z,1.02
2022-09-20T14:25:33.448Z,0.80
2022-09-20T14:28:17.334Z,1.00
2022-09-20T14:30:47.392Z,0.90
2022-09-20T14:33:19.551Z,1.35
2022-09-20T14:35:50.850Z,1.08
2022-09-20T14:38:23.920Z,1.10
2022-09-20T14:40:52.864Z,1.27
2022-09-20T14:43:26.944Z,1.00
2022-09-20T14:45:57.728Z,1.30
2022-09-20T14:48:37.729Z,0.93
2022-09-20T14:51:25.469Z,1.02
2022-09-20T14:53:54.735Z,0.93
2022-09-20T14:56:34.956Z,1.17
2022-09-20T14:59:20.470Z,1.00
2022-09-20T15:01:59.332Z,1.00
2022-09-20T15:04:28.902Z,0.88
2022-09-20T15:07:02.738Z,1.00
2022-09-20T15:09:31.487Z,1.25
2022-09-20T15:12:07.214Z,0.98
2022-09-20T15:14:37.912Z,1.10
2022-09-20T15:17:07.289Z,1.30
2022-09-20T15:19:35.388Z,1.00
2022-09-20T15:22:05.222Z,1.20
2022-09-20T15:24:33.256Z,1.58
2022-09-20T15:27:01.786Z,1.20
2022-09-20T15:29:30.291Z,1.17
2022-09-20T15:31:58.965Z,1.20
2022-09-20T15:34:27.561Z,1.05
2022-09-20T15:36:55.722Z,1.20
2022-09-20T15:39:25.523Z,1.17
2022-09-20T15:41:54.126Z,1.33
2022-09-20T15:44:22.105Z,1.27
2022-09-20T15:46:52.650Z,1.20
2022-09-20T15:49:49.159Z,1.38
2022-09-20T15:52:27.841Z,1.35
2022-09-20T15:55:02.064Z,1.65
2022-09-20T15:57:30.114Z,1.33
2022-09-20T15:59:59.107Z,1.30
2022-09-20T16:02:27.770Z,1.20
2022-09-20T16:04:56.067Z,1.33
2022-09-20T16:07:27.123Z,0.88
2022-09-20T16:09:57.967Z,1.13
2022-09-20T16:12:26.880Z,1.30
2022-09-20T16:14:54.904Z,1.10
2022-09-20T16:17:43.748Z,1.30
2022-09-20T16:20:11.141Z,1.30
2022-09-20T16:22:39.171Z,1.48
2022-09-20T16:25:09.804Z,1.13
2022-09-20T16:27:37.831Z,1.10
2022-09-20T16:30:07.080Z,1.20
2022-09-20T16:32:38.120Z,1.40
2022-09-20T16:35:07.922Z,1.05
2022-09-20T16:37:37.006Z,1.23
2022-09-20T16:40:14.258Z,1.92
2022-09-20T16:42:42.324Z,1.98
2022-09-20T16:45:13.268Z,2.00
2022-09-20T16:47:41.592Z,1.55
2022-09-20T16:50:10.617Z,1.40
2022-09-20T16:52:39.150Z,1.25
2022-09-20T16:55:10.959Z,1.10
2022-09-20T16:57:39.113Z,1.20
2022-09-20T17:00:08.260Z,1.08
2022-09-20T17:02:36.227Z,1.27
2022-09-20T17:05:04.241Z,1.45
2022-09-20T17:07:33.746Z,1.40
2022-09-20T17:10:01.924Z,2.05
2022-09-20T17:12:34.016Z,2.13
2022-09-20T17:15:01.912Z,1.50
2022-09-20T17:17:30.057Z,1.40
2022-09-20T17:19:58.552Z,1.35
2022-09-20T17:22:26.594Z,1.38
2022-09-20T17:24:54.952Z,1.20
2022-09-20T17:27:24.001Z,1.50
2022-09-20T17:29:53.585Z,1.20
2022-09-20T17:32:23.952Z,1.50
2022-09-20T17:34:52.266Z,1.10
2022-09-20T17:37:22.249Z,1.13
2022-09-20T17:39:50.390Z,1.00
2022-09-20T17:42:19.118Z,1.02
2022-09-20T17:44:48.208Z,1.30
2022-09-20T17:47:19.906Z,1.08
2022-09-20T17:49:47.983Z,1.50
2022-09-20T17:52:15.993Z,1.40
2022-09-20T17:54:46.230Z,1.80
2022-09-20T17:57:14.234Z,1.13
2022-09-20T17:59:42.249Z,1.33
2022-09-20T18:02:11.080Z,1.17
2022-09-20T18:04:42.855Z,1.30
2022-09-20T18:07:11.105Z,1.38
2022-09-20T18:09:39.667Z,1.23
2022-09-20T18:12:07.915Z,1.65
2022-09-20T18:14:36.384Z,1.17
2022-09-20T18:17:05.465Z,1.45
2022-09-20T18:19:35.900Z,1.50
2022-09-20T18:22:06.893Z,1.83
2022-09-20T18:24:35.432Z,1.60
2022-09-20T18:27:04.588Z,1.77
2022-09-20T18:29:36.906Z,1.52
2022-09-20T18:32:05.440Z,1.50
2022-09-20T18:34:34.044Z,1.45
2022-09-20T18:37:06.051Z,1.52
2022-09-20T18:39:37.143Z,1.73
2022-09-20T18:42:07.772Z,1.50
2022-09-20T18:44:36.462Z,3.22
2022-09-20T18:47:05.489Z,1.60
2022-09-20T18:49:34.439Z,2.67
2022-09-20T18:52:05.496Z,5.47
2022-09-20T18:54:33.768Z,2.53
2022-09-20T18:57:02.872Z,9.27
2022-09-20T18:59:31.906Z,11.10
2022-09-20T19:02:24.841Z,11.02
2022-09-20T19:05:08.492Z,11.68
2022-09-20T19:07:49.905Z,7.63
2022-09-20T19:10:27.978Z,18.38
2022-09-20T19:13:03.503Z,11.13
2022-09-20T19:15:45.305Z,16.50
2022-09-20T19:18:34.146Z,15.35
2022-09-20T19:21:14.310Z,18.13
2022-09-20T19:24:03.538Z,14.23
2022-09-20T19:26:37.938Z,16.92
2022-09-20T19:29:18.006Z,22.65
2022-09-20T19:31:48.251Z,24.77
2022-09-20T19:34:20.313Z,22.02
2022-09-20T19:37:02.013Z,18.25
2022-09-20T19:39:47.928Z,20.65
2022-09-20T19:42:24.643Z,26.33
2022-09-20T19:45:04.298Z,21.52
2022-09-20T19:47:42.368Z,20.55
2022-09-20T19:50:18.128Z,17.75
2022-09-20T19:52:46.636Z,19.25
2022-09-20T19:55:17.742Z,16.17
2022-09-20T19:57:47.929Z,16.30
2022-09-20T20:00:18.482Z,19.58
2022-09-20T20:02:47.684Z,20.70
2022-09-20T20:05:18.632Z,20.92
2022-09-20T20:07:51.884Z,20.60
2022-09-20T20:10:28.013Z,20.55
2022-09-20T20:13:03.514Z,29.02
2022-09-20T20:15:44.312Z,27.85
2022-09-20T20:18:20.805Z,28.05
2022-09-20T20:20:51.743Z,31.15
2022-09-20T20:23:42.253Z,32.00
2022-09-20T20:26:23.397Z,29.65
2022-09-20T20:28:52.801Z,29.45
2022-09-20T20:31:20.994Z,27.00
2022-09-20T20:33:49.592Z,25.95
2022-09-20T20:36:18.192Z,23.13
2022-09-20T20:38:49.872Z,22.05
2022-09-20T20:41:21.780Z,20.92
2022-09-20T20:43:57.256Z,22.50
2022-09-20T20:46:26.348Z,23.80
2022-09-20T20:48:54.409Z,23.50
2022-09-20T20:51:23.840Z,22.45
2022-09-20T20:53:53.878Z,25.13
2022-09-20T20:56:25.788Z,25.77
2022-09-20T20:58:54.070Z,27.98
2022-09-20T21:01:24.042Z,28.45
2022-09-20T21:03:54.749Z,28.83
2022-09-20T21:06:24.955Z,30.00
2022-09-20T21:08:53.479Z,28.63
2022-09-20T21:11:25.510Z,28.05
2022-09-20T21:13:54.031Z,26.80
2022-09-20T21:16:23.882Z,28.98
2022-09-20T21:18:52.124Z,29.55
2022-09-20T21:21:21.483Z,27.98
2022-09-20T21:23:51.433Z,26.30
2022-09-20T21:26:22.474Z,26.88
2022-09-20T21:28:52.631Z,27.00
2022-09-20T21:31:21.789Z,29.42
2022-09-20T21:33:50.116Z,28.95
2022-09-20T21:36:20.253Z,30.05
2022-09-20T21:38:48.412Z,29.30
2022-09-20T21:41:18.363Z,26.40
2022-09-20T21:43:48.857Z,30.80
2022-09-20T21:46:18.925Z,31.42
2022-09-20T21:48:47.587Z,30.67
2022-09-20T21:51:18.226Z,31.55
2022-09-20T21:53:46.426Z,31.20
2022-09-20T21:56:16.253Z,31.90
2022-09-20T21:58:46.041Z,32.08
2022-09-20T22:01:18.514Z,31.88
2022-09-20T22:03:48.874Z,31.60
2022-09-20T22:06:18.341Z,31.20
2022-09-20T22:08:48.577Z,32.40
2022-09-20T22:11:17.614Z,33.17
2022-09-20T22:13:47.255Z,31.73
2022-09-20T22:16:19.911Z,31.80
2022-09-20T22:18:48.321Z,32.80
2022-09-20T22:21:18.973Z,33.58
2022-09-20T22:23:50.953Z,33.45
2022-09-20T22:26:20.687Z,33.70
2022-09-20T22:28:50.068Z,31.55
2022-09-20T22:31:21.619Z,33.88
2022-09-20T22:33:51.895Z,33.83
2022-09-20T22:36:22.389Z,33.70
2022-09-20T22:38:50.778Z,34.10
2022-09-20T22:41:20.567Z,33.08
2022-09-20T22:43:49.074Z,32.67
2022-09-20T22:46:19.874Z,33.22
2022-09-20T22:48:48.311Z,31.73
2022-09-20T22:51:18.114Z,31.63
2022-09-20T22:53:46.824Z,31.02
2022-09-20T22:56:16.784Z,31.20
2022-09-20T22:58:46.596Z,31.20
2022-09-20T23:01:16.593Z,30.48
2022-09-20T23:03:48.508Z,30.85
2022-09-20T23:06:20.908Z,29.75
2022-09-20T23:08:49.672Z,30.48
2022-09-20T23:11:18.836Z,30.00
2022-09-20T23:13:48.131Z,31.20
2022-09-20T23:16:19.257Z,29.90
2022-09-20T23:18:52.601Z,30.50
2022-09-20T23:21:21.811Z,30.80
2022-09-20T23:23:54.305Z,30.90
2022-09-20T23:26:22.642Z,32.35
2022-09-20T23:28:55.854Z,32.50
2022-09-20T23:31:24.808Z,34.00
2022-09-20T23:33:56.562Z,33.67
2022-09-20T23:36:26.530Z,33.38
2022-09-20T23:38:54.766Z,32.67
2022-09-20T23:41:24.838Z,33.28
2022-09-20T23:43:53.245Z,33.97
2022-09-20T23:46:23.659Z,34.17
2022-09-20T23:48:53.341Z,35.75
2022-09-20T23:51:22.933Z,33.63
2022-09-20T23:53:51.627Z,32.55
2022-09-20T23:56:21.183Z,33.67
2022-09-20T23:58:50.319Z,33.33
